Time;durP1;ratioP1;P1;durP2;ratioP2;P2;SDS_P1;SDS_P2;PMS_P1;PMS_P2;Temp;Humidity;BMP_temperature;BMP_pressure;BME280_temperature;BME280_humidity;BME280_pressure;Samples;Min_cycle;Max_cycle;Signal;HPM_P1;HPM_P2
2022/05/17 00:00:05;;;;;;;4.38;0.82;;;17.60;99.90;;;;;;4996271;28;20073;-75
2022/05/17 00:02:33;;;;;;;3.38;1.10;;;17.60;99.90;;;;;;4995059;28;20030;-75
2022/05/17 00:05:00;;;;;;;3.92;0.93;;;17.60;99.90;;;;;;4996790;28;20061;-76
2022/05/17 00:07:27;;;;;;;3.30;0.98;;;17.60;99.90;;;;;;4994743;28;20035;-74
2022/05/17 00:09:55;;;;;;;5.00;1.15;;;17.60;99.90;;;;;;4996323;28;20361;-73
2022/05/17 00:12:22;;;;;;;6.28;1.90;;;17.70;99.90;;;;;;4996234;28;20041;-74
2022/05/17 00:14:49;;;;;;;4.13;1.15;;;17.70;99.90;;;;;;4996059;28;20049;-73
2022/05/17 00:17:17;;;;;;;4.03;0.88;;;17.80;99.90;;;;;;4996113;28;20033;-74
2022/05/17 00:19:44;;;;;;;4.90;1.10;;;17.90;99.90;;;;;;4994748;28;20031;-75
2022/05/17 00:22:12;;;;;;;5.30;1.05;;;17.90;99.90;;;;;;4994718;28;20030;-75
2022/05/17 00:24:39;;;;;;;5.38;0.90;;;18.00;99.90;;;;;;4995923;28;20033;-74
2022/05/17 00:27:07;;;;;;;6.50;0.98;;;18.00;99.90;;;;;;4996145;28;20098;-74
2022/05/17 00:29:35;;;;;;;3.17;0.80;;;18.00;99.90;;;;;;4995776;28;20033;-74
2022/05/17 00:32:03;;;;;;;3.42;1.10;;;18.00;99.90;;;;;;4995515;28;20479;-73
2022/05/17 00:34:31;;;;;;;3.63;0.75;;;18.10;99.90;;;;;;4994541;28;20475;-74
2022/05/17 00:36:59;;;;;;;3.45;0.80;;;18.20;99.90;;;;;;4994754;28;20041;-74
2022/05/17 00:39:26;;;;;;;3.47;0.90;;;18.30;99.90;;;;;;4995632;28;20415;-74
2022/05/17 00:41:53;;;;;;;1.80;0.70;;;18.20;99.90;;;;;;4995681;28;20023;-74
2022/05/17 00:47:27;;;;;;;2.10;0.80;;;18.30;99.90;;;;;;4995576;28;20118;-74
2022/05/17 00:49:57;;;;;;;2.88;0.75;;;18.40;99.90;;;;;;4995371;28;20029;-73
2022/05/17 00:52:41;;;;;;;3.22;0.60;;;18.30;99.90;;;;;;4994156;28;20026;-73
2022/05/17 00:55:17;;;;;;;1.50;0.40;;;18.30;99.90;;;;;;4995338;28;20029;-73
2022/05/17 00:58:18;;;;;;;4.00;0.57;;;18.40;99.90;;;;;;4995613;28;20050;-74
2022/05/17 01:01:10;;;;;;;2.28;0.60;;;18.40;99.90;;;;;;4995422;28;20023;-73
2022/05/17 01:03:46;;;;;;;2.85;0.60;;;18.50;99.90;;;;;;4994241;28;20116;-72
2022/05/17 01:06:15;;;;;;;2.95;0.52;;;18.50;99.90;;;;;;4993678;28;20141;-73
2022/05/17 01:08:43;;;;;;;3.20;0.57;;;18.70;99.90;;;;;;4993524;28;20073;-72
2022/05/17 01:11:10;;;;;;;4.43;0.50;;;18.80;99.90;;;;;;4993605;28;20023;-75
2022/05/17 01:16:25;;;;;;;2.63;0.50;;;19.00;99.90;;;;;;4995123;28;20033;-72
2022/05/17 01:18:53;;;;;;;2.72;0.50;;;19.10;99.90;;;;;;4994929;28;20494;-71
2022/05/17 01:21:20;;;;;;;2.20;0.50;;;19.10;99.90;;;;;;4993435;28;20372;-74
2022/05/17 01:23:48;;;;;;;3.83;0.60;;;19.10;99.90;;;;;;4994809;28;20026;-71
2022/05/17 01:26:21;;;;;;;3.67;0.52;;;19.20;99.90;;;;;;4994759;28;20472;-73
2022/05/17 01:28:49;;;;;;;4.47;0.88;;;19.20;99.90;;;;;;4995188;28;20018;-73
2022/05/17 01:31:18;;;;;;;1.75;0.63;;;19.30;99.90;;;;;;4977260;28;20026;-74
2022/05/17 01:33:46;;;;;;;4.32;1.20;;;19.40;99.90;;;;;;4994975;28;20019;-73
2022/05/17 01:36:16;;;;;;;2.28;0.70;;;19.50;99.90;;;;;;4994460;28;20046;-73
2022/05/17 01:38:46;;;;;;;3.90;0.60;;;19.40;99.90;;;;;;4993273;28;20157;-73
2022/05/17 01:41:13;;;;;;;2.70;0.63;;;19.50;99.90;;;;;;4993071;28;20082;-73
2022/05/17 01:43:40;;;;;;;2.95;0.60;;;19.70;99.90;;;;;;4992504;28;20031;-73
2022/05/17 01:46:09;;;;;;;3.47;0.85;;;19.60;99.90;;;;;;4992953;28;20045;-74
2022/05/17 01:48:41;;;;;;;9.40;0.85;;;19.60;99.90;;;;;;4993078;28;20490;-73
2022/05/17 01:51:10;;;;;;;1.65;0.43;;;19.50;99.90;;;;;;4994234;28;20050;-73
2022/05/17 01:53:38;;;;;;;3.20;0.75;;;19.40;99.90;;;;;;4992995;28;20031;-74
2022/05/17 01:56:06;;;;;;;2.10;0.50;;;19.50;99.90;;;;;;4992831;28;20026;-74
2022/05/17 01:58:34;;;;;;;2.17;0.45;;;19.50;99.90;;;;;;4992807;28;20041;-74
2022/05/17 02:01:03;;;;;;;3.38;0.70;;;19.60;99.90;;;;;;4992759;28;20125;-74
2022/05/17 02:03:30;;;;;;;3.63;0.68;;;19.60;99.90;;;;;;4992650;28;20026;-74
2022/05/17 02:05:57;;;;;;;1.75;0.50;;;19.60;99.90;;;;;;4993944;28;20034;-74
2022/05/17 02:08:25;;;;;;;2.72;0.85;;;19.70;99.90;;;;;;4992250;28;20050;-73
2022/05/17 02:10:52;;;;;;;1.38;0.45;;;19.60;99.90;;;;;;4992595;28;20026;-73
2022/05/17 02:13:20;;;;;;;1.42;0.57;;;19.70;99.90;;;;;;4992526;28;20030;-73
2022/05/17 02:15:47;;;;;;;4.05;0.80;;;19.80;99.90;;;;;;4993824;28;20157;-73
2022/05/17 02:18:16;;;;;;;3.13;0.70;;;19.80;99.90;;;;;;4992688;28;20032;-72
2022/05/17 02:20:43;;;;;;;4.47;1.27;;;19.80;99.90;;;;;;4992546;28;20390;-73
2022/05/17 02:23:10;;;;;;;4.13;1.00;;;20.10;99.90;;;;;;4992560;28;20030;-73
2022/05/17 02:25:38;;;;;;;3.13;0.60;;;20.10;99.90;;;;;;4992381;28;20380;-73
2022/05/17 02:28:08;;;;;;;2.50;0.82;;;20.00;99.90;;;;;;4992350;28;20360;-73
2022/05/17 02:30:35;;;;;;;2.67;0.90;;;20.00;99.90;;;;;;4992345;28;20117;-74
2022/05/17 02:33:04;;;;;;;2.90;0.52;;;20.10;99.90;;;;;;4993382;28;20433;-72
2022/05/17 02:35:31;;;;;;;4.00;0.50;;;20.10;99.90;;;;;;4993602;28;20076;-72
2022/05/17 02:37:59;;;;;;;2.80;0.70;;;20.00;99.90;;;;;;4993447;28;20102;-73
2022/05/17 02:40:26;;;;;;;2.72;0.68;;;20.00;99.90;;;;;;4993712;28;20502;-73
2022/05/17 02:42:54;;;;;;;1.52;0.70;;;20.00;99.90;;;;;;4993479;28;20029;-71
2022/05/17 02:45:21;;;;;;;3.35;0.68;;;20.10;99.90;;;;;;4993300;28;20449;-72
2022/05/17 02:47:49;;;;;;;1.70;0.60;;;20.20;99.90;;;;;;4993358;28;20022;-71
2022/05/17 02:50:17;;;;;;;4.50;0.82;;;20.20;99.90;;;;;;4992198;28;20387;-71
2022/05/17 02:52:44;;;;;;;2.85;0.75;;;20.30;99.90;;;;;;4993405;28;20022;-72
2022/05/17 02:55:11;;;;;;;2.63;0.82;;;20.30;99.90;;;;;;4995620;28;20426;-71
2022/05/17 02:57:39;;;;;;;3.58;0.70;;;20.50;99.90;;;;;;4997342;28;20090;-71
2022/05/17 03:00:12;;;;;;;3.20;0.77;;;20.40;99.90;;;;;;4996093;28;20022;-72
2022/05/17 03:02:39;;;;;;;3.58;0.77;;;20.60;99.90;;;;;;4980519;28;20395;-71
2022/05/17 03:05:08;;;;;;;2.83;0.70;;;20.60;99.90;;;;;;4997796;28;20018;-71
2022/05/17 03:07:35;;;;;;;3.13;0.77;;;20.60;99.90;;;;;;4995999;28;20031;-71
2022/05/17 03:10:03;;;;;;;3.53;1.10;;;20.60;99.90;;;;;;4997216;28;20097;-71
2022/05/17 03:12:30;;;;;;;2.88;1.05;;;20.50;99.90;;;;;;4997223;28;20022;-71
2022/05/17 03:15:00;;;;;;;3.42;0.80;;;20.60;99.90;;;;;;4997141;28;20525;-71
2022/05/17 03:17:27;;;;;;;3.05;0.93;;;20.70;99.90;;;;;;4995827;28;20185;-71
2022/05/17 03:19:58;;;;;;;4.45;0.90;;;20.70;99.90;;;;;;4996987;28;20056;-71
2022/05/17 03:22:25;;;;;;;3.42;0.98;;;20.70;99.90;;;;;;4997002;28;20022;-71
2022/05/17 03:24:52;;;;;;;2.95;0.77;;;20.60;99.90;;;;;;4995654;28;20037;-72
2022/05/17 03:27:20;;;;;;;3.08;0.95;;;20.70;99.90;;;;;;4995552;28;20032;-71
2022/05/17 03:29:48;;;;;;;2.90;0.68;;;20.70;99.90;;;;;;4996854;28;20106;-72
2022/05/17 03:32:15;;;;;;;3.30;0.70;;;20.70;99.90;;;;;;4996905;28;20034;-72
2022/05/17 03:34:43;;;;;;;4.88;0.95;;;20.70;99.90;;;;;;4995514;28;20109;-72
2022/05/17 03:37:10;;;;;;;3.70;0.90;;;20.80;99.90;;;;;;4996960;28;20105;-71
2022/05/17 03:39:37;;;;;;;4.72;0.70;;;20.80;99.90;;;;;;4995196;28;20470;-72
2022/05/17 03:42:09;;;;;;;3.55;0.98;;;20.80;99.90;;;;;;4996580;28;20106;-72
2022/05/17 03:44:37;;;;;;;3.35;0.65;;;20.90;99.90;;;;;;4995124;28;20026;-71
2022/05/17 03:47:06;;;;;;;1.88;0.90;;;20.70;99.90;;;;;;4996389;28;20080;-72
2022/05/17 03:49:35;;;;;;;1.75;0.60;;;20.70;99.90;;;;;;4996171;28;20048;-72
2022/05/17 03:52:04;;;;;;;3.95;0.60;;;20.70;99.90;;;;;;4996189;28;20101;-71
2022/05/17 03:54:31;;;;;;;3.90;1.00;;;20.80;99.90;;;;;;4995092;28;20057;-71
2022/05/17 03:56:59;;;;;;;4.13;0.90;;;20.90;99.90;;;;;;4994877;28;20045;-72
2022/05/17 03:59:26;;;;;;;1.83;0.50;;;20.90;99.90;;;;;;4996318;28;20018;-71
2022/05/17 04:01:53;;;;;;;1.83;0.50;;;20.90;99.90;;;;;;4996484;28;20023;-72
2022/05/17 04:04:21;;;;;;;3.25;0.70;;;20.90;99.90;;;;;;4994957;28;20556;-71
2022/05/17 04:06:48;;;;;;;2.83;0.68;;;20.90;99.90;;;;;;4994078;28;20033;-71
2022/05/17 04:09:16;;;;;;;1.92;0.60;;;20.90;99.90;;;;;;4994603;28;20054;-73
2022/05/17 04:11:43;;;;;;;2.85;0.68;;;20.80;99.90;;;;;;4996002;28;20022;-72
2022/05/17 04:14:10;;;;;;;3.90;0.80;;;20.80;99.90;;;;;;4996181;28;20023;-72
2022/05/17 04:16:40;;;;;;;2.42;0.68;;;21.00;99.90;;;;;;4994781;28;20066;-71
2022/05/17 04:19:09;;;;;;;2.80;0.55;;;20.90;99.90;;;;;;4996215;28;20097;-71
2022/05/17 04:21:36;;;;;;;3.13;0.65;;;20.90;99.90;;;;;;4995947;28;20058;-72
2022/05/17 04:24:04;;;;;;;3.45;1.00;;;21.00;99.90;;;;;;4995901;28;20029;-71
2022/05/17 04:26:32;;;;;;;4.93;1.02;;;21.00;99.90;;;;;;4994465;28;20030;-71
2022/05/17 04:28:59;;;;;;;2.47;0.60;;;20.90;99.90;;;;;;4994438;28;20026;-71
2022/05/17 04:31:27;;;;;;;2.10;0.70;;;20.90;99.90;;;;;;4994295;28;20471;-72
2022/05/17 04:33:54;;;;;;;5.03;1.50;;;20.90;99.90;;;;;;4996039;28;20401;-71
2022/05/17 04:36:22;;;;;;;12.70;2.92;;;20.80;99.90;;;;;;4995863;28;20033;-73
2022/05/17 04:38:49;;;;;;;5.43;1.15;;;20.90;99.90;;;;;;4995815;28;20470;-71
2022/05/17 04:41:16;;;;;;;3.50;0.52;;;20.80;99.90;;;;;;4995544;28;20026;-72
2022/05/17 04:43:44;;;;;;;1.92;0.65;;;20.80;99.90;;;;;;4994250;28;20030;-71
2022/05/17 04:46:11;;;;;;;4.18;0.70;;;20.60;99.90;;;;;;4994109;28;20317;-71
2022/05/17 04:48:39;;;;;;;2.83;0.98;;;20.50;99.90;;;;;;4994179;28;20029;-71
2022/05/17 04:51:11;;;;;;;1.52;0.70;;;20.50;99.90;;;;;;4995503;28;20018;-71
2022/05/17 04:53:41;;;;;;;1.95;0.60;;;20.40;99.90;;;;;;4994181;28;20026;-71
2022/05/17 04:56:09;;;;;;;2.30;0.55;;;20.30;99.90;;;;;;4995282;28;20031;-71
2022/05/17 04:58:37;;;;;;;2.53;0.70;;;20.30;99.90;;;;;;4995282;28;20045;-71
2022/05/17 05:01:05;;;;;;;1.80;0.40;;;20.30;99.90;;;;;;4995175;28;20080;-71
2022/05/17 05:03:33;;;;;;;2.55;0.60;;;20.20;99.90;;;;;;4993872;28;20034;-72
2022/05/17 05:06:00;;;;;;;2.70;0.60;;;20.20;99.90;;;;;;4995282;28;20037;-72
2022/05/17 05:08:27;;;;;;;2.78;0.50;;;20.20;99.90;;;;;;4993544;28;20050;-72
2022/05/17 05:10:55;;;;;;;1.58;0.60;;;20.10;99.90;;;;;;4994941;28;20018;-71
2022/05/17 05:13:25;;;;;;;3.55;0.73;;;20.10;99.90;;;;;;4994982;28;20026;-71
2022/05/17 05:15:56;;;;;;;2.45;0.55;;;20.00;99.90;;;;;;4994962;28;20387;-71
2022/05/17 05:18:24;;;;;;;2.33;0.60;;;20.10;99.90;;;;;;4992423;28;20165;-70
2022/05/17 05:21:02;;;;;;;3.28;0.60;;;20.00;99.90;;;;;;4993458;28;20030;-71
2022/05/17 05:23:29;;;;;;;2.88;0.75;;;19.90;99.90;;;;;;4993501;28;20034;-71
2022/05/17 05:26:02;;;;;;;1.02;0.40;;;19.90;99.90;;;;;;4994633;28;20399;-72
2022/05/17 05:28:30;;;;;;;2.90;0.93;;;20.00;99.90;;;;;;4994592;28;20364;-73
2022/05/17 05:30:58;;;;;;;1.27;0.50;;;20.00;99.90;;;;;;4993292;28;20026;-72
2022/05/17 05:33:26;;;;;;;1.67;0.50;;;20.00;99.90;;;;;;4993300;28;20026;-72
2022/05/17 05:35:54;;;;;;;1.58;0.60;;;19.90;99.90;;;;;;4993199;28;20037;-72
2022/05/17 05:38:21;;;;;;;2.33;0.55;;;19.90;99.90;;;;;;4993030;28;20041;-72
2022/05/17 05:40:48;;;;;;;2.30;0.50;;;20.00;99.90;;;;;;4994477;28;20075;-71
2022/05/17 05:43:16;;;;;;;3.45;1.00;;;19.90;99.90;;;;;;4994368;28;20053;-72
2022/05/17 05:45:44;;;;;;;1.60;0.57;;;19.90;99.90;;;;;;4992977;28;20508;-72
2022/05/17 05:48:11;;;;;;;3.85;0.52;;;19.80;99.90;;;;;;4994288;28;20019;-72
2022/05/17 05:50:39;;;;;;;3.35;0.65;;;19.80;99.90;;;;;;4993061;28;20053;-71
2022/05/17 05:53:12;;;;;;;3.03;0.90;;;19.80;99.90;;;;;;4994236;28;20026;-72
2022/05/17 05:55:43;;;;;;;2.58;0.98;;;19.60;99.90;;;;;;4994193;28;20126;-71
2022/05/17 05:58:11;;;;;;;2.72;0.60;;;19.60;99.90;;;;;;4992847;28;20034;-72
2022/05/17 06:00:38;;;;;;;4.00;0.63;;;19.50;99.90;;;;;;4994067;28;20037;-72
2022/05/17 06:03:06;;;;;;;2.80;0.60;;;19.40;99.90;;;;;;4994021;28;20030;-72
2022/05/17 06:05:34;;;;;;;3.42;0.90;;;19.40;99.90;;;;;;4993983;28;20081;-72
2022/05/17 06:08:01;;;;;;;2.50;1.10;;;19.40;99.90;;;;;;4992471;28;20053;-72
2022/05/17 06:10:29;;;;;;;1.83;0.73;;;19.30;99.90;;;;;;4994210;28;20025;-72
2022/05/17 06:12:56;;;;;;;3.88;0.90;;;19.30;99.90;;;;;;4992788;28;20030;-72
2022/05/17 06:15:23;;;;;;;3.97;0.95;;;19.30;99.90;;;;;;4994105;28;20019;-71
2022/05/17 06:17:51;;;;;;;3.53;0.85;;;19.20;99.90;;;;;;4992558;28;20069;-71
2022/05/17 06:20:19;;;;;;;3.22;1.05;;;19.10;99.90;;;;;;4993823;28;20498;-71
2022/05/17 06:22:46;;;;;;;4.68;1.20;;;19.00;99.90;;;;;;4993833;28;20022;-71
2022/05/17 06:25:14;;;;;;;3.75;1.17;;;18.90;99.90;;;;;;4993636;28;20068;-70
2022/05/17 06:27:41;;;;;;;2.92;1.05;;;18.80;99.90;;;;;;4993546;28;20387;-70
2022/05/17 06:30:10;;;;;;;2.80;1.20;;;18.70;99.90;;;;;;4993278;28;20022;-70
2022/05/17 06:32:37;;;;;;;2.85;1.35;;;18.60;99.90;;;;;;4993814;28;20033;-71
2022/05/17 06:35:05;;;;;;;2.70;0.90;;;18.40;99.90;;;;;;4993510;28;20530;-72
2022/05/17 06:37:32;;;;;;;4.95;0.90;;;18.30;99.90;;;;;;4993570;28;20026;-71
2022/05/17 06:40:01;;;;;;;4.18;0.90;;;18.20;99.90;;;;;;4993501;28;20431;-72
2022/05/17 06:42:29;;;;;;;2.30;0.73;;;18.10;99.90;;;;;;4993381;28;20057;-71
2022/05/17 06:44:56;;;;;;;5.13;1.58;;;18.00;99.90;;;;;;4992091;28;20479;-71
2022/05/17 06:47:24;;;;;;;5.15;1.30;;;17.80;99.90;;;;;;4992132;28;20030;-71
2022/05/17 06:49:51;;;;;;;4.22;1.02;;;17.80;99.90;;;;;;4991986;28;20053;-71
2022/05/17 06:52:20;;;;;;;2.65;0.80;;;17.70;99.90;;;;;;4993427;28;20164;-71
2022/05/17 06:54:49;;;;;;;2.50;1.00;;;17.50;99.90;;;;;;4992044;28;20130;-71
2022/05/17 06:57:19;;;;;;;2.35;0.98;;;17.50;99.90;;;;;;4991913;28;20030;-69
2022/05/17 06:59:46;;;;;;;4.22;1.10;;;17.40;99.90;;;;;;4993255;28;20026;-71
2022/05/17 07:02:14;;;;;;;3.05;1.20;;;17.30;99.90;;;;;;4991992;28;20034;-73
2022/05/17 07:04:41;;;;;;;5.50;2.17;;;17.20;99.90;;;;;;4993133;28;20045;-72
2022/05/17 07:07:09;;;;;;;5.90;1.48;;;17.30;99.90;;;;;;4993072;28;20074;-72
2022/05/17 07:09:38;;;;;;;4.35;1.60;;;17.20;99.90;;;;;;4993000;28;20447;-73
2022/05/17 07:14:51;;;;;;;6.47;1.80;;;17.00;99.90;;;;;;4993337;28;20038;-71
2022/05/17 07:17:23;;;;;;;3.10;1.10;;;16.90;99.90;;;;;;4991776;28;20030;-71
2022/05/17 07:19:51;;;;;;;2.67;1.08;;;16.70;99.90;;;;;;4991845;28;20034;-72
2022/05/17 07:22:18;;;;;;;2.67;1.00;;;16.70;99.90;;;;;;4993142;28;20034;-72
2022/05/17 07:24:46;;;;;;;3.17;1.17;;;16.60;99.90;;;;;;4993121;28;20027;-72
2022/05/17 07:27:14;;;;;;;4.22;1.20;;;16.50;99.90;;;;;;4991740;28;20023;-71
2022/05/17 07:29:42;;;;;;;4.35;1.50;;;16.50;99.90;;;;;;4992043;28;20030;-72
2022/05/17 07:32:09;;;;;;;6.22;1.70;;;16.40;99.90;;;;;;4991798;28;20077;-72
2022/05/17 07:34:36;;;;;;;7.93;4.93;;;16.30;99.90;;;;;;4993018;28;20102;-72
2022/05/17 07:37:04;;;;;;;8.13;4.75;;;16.20;99.90;;;;;;4993053;28;20033;-72
2022/05/17 07:39:32;;;;;;;5.57;3.53;;;16.10;99.90;;;;;;4991721;28;20399;-71
2022/05/17 07:41:59;;;;;;;6.43;2.50;;;16.10;99.90;;;;;;4993453;28;20026;-72
2022/05/17 07:44:27;;;;;;;2.28;1.58;;;16.00;99.90;;;;;;4995348;28;20045;-72
2022/05/17 07:46:54;;;;;;;4.68;1.83;;;16.00;99.90;;;;;;4995210;28;20057;-72
2022/05/17 07:49:21;;;;;;;4.20;1.98;;;15.90;99.90;;;;;;4995279;28;20455;-71
2022/05/17 07:51:49;;;;;;;3.53;1.30;;;15.90;99.90;;;;;;4995178;28;20033;-73
2022/05/17 07:54:19;;;;;;;4.05;1.50;;;16.00;99.90;;;;;;4995201;28;20027;-72
2022/05/17 07:56:46;;;;;;;3.95;1.20;;;15.90;99.90;;;;;;4996716;28;20108;-73
2022/05/17 07:59:14;;;;;;;3.70;1.30;;;15.80;99.90;;;;;;4996619;28;20114;-72
2022/05/17 08:01:41;;;;;;;3.97;2.35;;;15.70;99.90;;;;;;4995114;28;20398;-71
2022/05/17 08:04:09;;;;;;;4.40;1.88;;;15.70;99.90;;;;;;4995133;28;20029;-72
2022/05/17 08:06:37;;;;;;;7.00;2.13;;;15.70;99.90;;;;;;4996048;28;20035;-71
2022/05/17 08:09:05;;;;;;;8.43;2.55;;;15.70;99.90;;;;;;4994501;28;20569;-72
2022/05/17 08:11:32;;;;;;;5.35;2.42;;;15.70;99.90;;;;;;4996025;28;20019;-72
2022/05/17 08:14:00;;;;;;;5.45;2.03;;;15.70;99.90;;;;;;4994723;28;20394;-72
2022/05/17 08:16:27;;;;;;;3.67;2.05;;;15.70;99.90;;;;;;4995950;28;20061;-72
2022/05/17 08:18:54;;;;;;;5.38;2.00;;;15.70;99.90;;;;;;4995950;28;20036;-72
2022/05/17 08:21:22;;;;;;;6.70;2.60;;;15.90;99.90;;;;;;4994646;28;20399;-72
2022/05/17 08:23:49;;;;;;;5.57;2.28;;;15.90;99.90;;;;;;4995886;28;20027;-72
2022/05/17 08:29:02;;;;;;;7.28;2.95;;;15.90;99.90;;;;;;4995851;28;20035;-72
2022/05/17 08:31:29;;;;;;;8.60;3.10;;;15.90;99.90;;;;;;4994506;28;20050;-73
2022/05/17 08:33:59;;;;;;;5.38;2.78;;;15.90;99.90;;;;;;4994441;28;20018;-73
2022/05/17 08:36:26;;;;;;;5.32;2.78;;;15.90;99.90;;;;;;4995509;28;20030;-73
2022/05/17 08:38:53;;;;;;;6.35;2.75;;;16.00;99.90;;;;;;4994434;28;20026;-72
2022/05/17 08:41:29;;;;;;;4.80;2.50;;;15.90;99.90;;;;;;4994202;28;20032;-73
2022/05/17 08:44:07;;;;;;;5.25;2.90;;;15.90;99.90;;;;;;4995616;28;20084;-73
2022/05/17 08:47:14;;;;;;;6.85;3.35;;;15.80;99.90;;;;;;4994106;28;20027;-72
2022/05/17 08:50:02;;;;;;;5.15;3.60;;;15.80;99.90;;;;;;4995445;28;20026;-73
2022/05/17 08:52:32;;;;;;;8.95;3.63;;;15.70;99.90;;;;;;4995348;28;20386;-72
2022/05/17 08:55:10;;;;;;;7.93;3.50;;;15.60;99.90;;;;;;4994010;28;20028;-72
2022/05/17 08:57:42;;;;;;;5.97;3.17;;;15.60;99.90;;;;;;4993994;28;20062;-73
2022/05/17 09:00:29;;;;;;;5.93;3.10;;;15.50;99.90;;;;;;4995184;28;20054;-72
2022/05/17 09:03:16;;;;;;;5.72;3.13;;;15.50;99.90;;;;;;4995134;28;20447;-71
2022/05/17 09:06:28;;;;;;;7.90;3.63;;;15.40;99.90;;;;;;4993788;28;20045;-73
2022/05/17 09:09:19;;;;;;;6.18;3.28;;;15.40;99.90;;;;;;4937862;29;20150;-72
2022/05/17 09:12:17;;;;;;;5.95;3.30;;;15.30;99.90;;;;;;4995066;28;20022;-74
2022/05/17 09:14:48;;;;;;;5.43;3.28;;;15.40;99.90;;;;;;4989381;28;20060;-73
2022/05/17 09:17:21;;;;;;;4.95;3.40;;;15.30;99.90;;;;;;4994894;28;20025;-73
2022/05/17 09:19:53;;;;;;;5.68;3.40;;;15.30;99.90;;;;;;4994909;28;20026;-72
2022/05/17 09:22:22;;;;;;;6.10;2.92;;;15.20;99.90;;;;;;4993827;28;20033;-73
2022/05/17 09:25:15;;;;;;;5.53;3.78;;;15.20;99.90;;;;;;4994705;28;20495;-73
2022/05/17 09:27:45;;;;;;;8.65;3.67;;;15.10;99.90;;;;;;4993407;28;20027;-73
2022/05/17 09:30:23;;;;;;;5.28;3.35;;;15.10;99.90;;;;;;4993439;28;20026;-73
2022/05/17 09:33:03;;;;;;;7.15;3.70;;;15.00;99.90;;;;;;4995136;28;20042;-73
2022/05/17 09:35:32;;;;;;;6.85;3.45;;;15.00;99.90;;;;;;4993363;28;20026;-73
2022/05/17 09:38:04;;;;;;;6.15;3.60;;;14.90;99.90;;;;;;4977391;28;20034;-73
2022/05/17 09:40:37;;;;;;;6.50;3.10;;;14.80;99.90;;;;;;4994489;28;20546;-74
2022/05/17 09:43:08;;;;;;;7.47;3.95;;;14.80;99.90;;;;;;4994471;28;20054;-74
2022/05/17 09:45:50;;;;;;;9.77;3.72;;;14.80;99.90;;;;;;4994354;28;20046;-75
2022/05/17 09:54:37;;;;;;;6.93;3.60;;;14.70;99.90;;;;;;4994506;28;20501;-73
2022/05/17 09:57:19;;;;;;;5.65;3.63;;;14.60;99.90;;;;;;4992962;28;20022;-73
2022/05/17 09:59:48;;;;;;;6.80;4.03;;;14.60;99.90;;;;;;4993026;28;20022;-74
2022/05/17 10:02:35;;;;;;;4.28;2.60;;;14.50;99.90;;;;;;4993013;28;20105;-74
2022/05/17 10:05:16;;;;;;;7.07;2.70;;;14.60;99.90;;;;;;4992281;28;20494;-74
2022/05/17 10:07:48;;;;;;;4.47;2.47;;;14.60;99.90;;;;;;4993870;28;20022;-74
2022/05/17 10:10:31;;;;;;;5.78;2.65;;;14.60;99.90;;;;;;4992760;28;20030;-74
2022/05/17 10:13:23;;;;;;;3.30;1.92;;;14.60;99.90;;;;;;4994354;28;20486;-74
2022/05/17 10:16:21;;;;;;;4.03;2.00;;;14.60;99.90;;;;;;4992423;28;20034;-74
2022/05/17 10:18:58;;;;;;;3.65;1.20;;;14.60;99.90;;;;;;4991999;28;20042;-75
2022/05/17 10:21:52;;;;;;;4.45;2.08;;;14.60;99.90;;;;;;4994406;28;20023;-75
2022/05/17 10:24:38;;;;;;;3.97;1.98;;;14.60;99.90;;;;;;4989837;28;20438;-75
2022/05/17 10:27:32;;;;;;;4.07;1.60;;;14.60;99.90;;;;;;4993805;28;20018;-75
2022/05/17 10:30:16;;;;;;;3.85;1.45;;;14.60;99.90;;;;;;4986339;28;20078;-74
2022/05/17 10:32:52;;;;;;;4.45;1.13;;;14.90;99.90;;;;;;4993633;28;20034;-75
2022/05/17 10:35:42;;;;;;;1.98;1.30;;;14.80;99.90;;;;;;4992380;28;20026;-75
2022/05/17 10:38:29;;;;;;;2.75;1.70;;;14.90;99.90;;;;;;4994012;28;20022;-75
2022/05/17 10:40:57;;;;;;;3.17;1.20;;;15.00;99.90;;;;;;4992330;28;20071;-75
2022/05/17 10:43:37;;;;;;;2.55;1.17;;;14.90;99.90;;;;;;4992266;28;20022;-75
2022/05/17 10:46:10;;;;;;;3.17;1.15;;;15.00;99.90;;;;;;4992262;28;20031;-73
2022/05/17 10:48:55;;;;;;;3.35;1.15;;;15.00;99.90;;;;;;4992322;28;20029;-74
2022/05/17 10:51:28;;;;;;;3.15;0.73;;;15.00;99.90;;;;;;4993648;28;20030;-75
2022/05/17 10:54:04;;;;;;;2.63;1.08;;;15.00;99.90;;;;;;4992126;28;20106;-75
2022/05/17 10:57:20;;;;;;;4.90;1.23;;;14.90;99.90;;;;;;4992157;28;20034;-74
2022/05/17 11:00:14;;;;;;;2.00;1.20;;;14.80;99.90;;;;;;4957244;28;20042;-75
2022/05/17 11:02:50;;;;;;;1.63;0.90;;;14.80;99.90;;;;;;4992166;28;20412;-74
2022/05/17 11:05:41;;;;;;;2.80;1.15;;;14.90;99.90;;;;;;4992038;28;20227;-74
2022/05/17 11:08:19;;;;;;;3.03;1.00;;;14.90;99.90;;;;;;4992452;28;20057;-74
2022/05/17 11:10:49;;;;;;;3.20;0.90;;;14.90;99.90;;;;;;4993317;28;20427;-74
2022/05/17 11:13:30;;;;;;;3.72;1.35;;;14.80;99.90;;;;;;4992039;28;20022;-75
2022/05/17 11:16:09;;;;;;;3.08;0.80;;;14.70;99.90;;;;;;4993849;28;20088;-76
2022/05/17 11:18:53;;;;;;;4.60;1.10;;;14.80;99.90;;;;;;4997220;28;20026;-73
2022/05/17 11:21:33;;;;;;;3.28;1.05;;;14.70;99.90;;;;;;4995835;28;20122;-75
2022/05/17 11:24:24;;;;;;;2.00;0.70;;;14.70;99.90;;;;;;4995720;28;20054;-75
2022/05/17 11:27:08;;;;;;;3.17;1.08;;;14.80;99.90;;;;;;4997240;28;20052;-76
2022/05/17 11:30:02;;;;;;;3.10;1.00;;;14.80;99.90;;;;;;4995688;28;20443;-76
2022/05/17 11:32:33;;;;;;;1.55;0.63;;;14.80;99.90;;;;;;4997259;28;20101;-76
2022/05/17 11:35:03;;;;;;;1.67;0.70;;;14.80;99.90;;;;;;4996864;28;20023;-75
2022/05/17 11:37:38;;;;;;;2.58;0.73;;;14.70;99.90;;;;;;4995424;28;20117;-74
2022/05/17 11:40:11;;;;;;;2.47;0.60;;;14.60;99.90;;;;;;4996024;28;20031;-74
2022/05/17 11:45:49;;;;;;;2.85;0.82;;;14.60;99.90;;;;;;4997092;28;20590;-76
2022/05/17 11:48:19;;;;;;;1.88;0.95;;;14.60;99.90;;;;;;4996734;28;20050;-76
2022/05/17 11:50:52;;;;;;;4.32;0.80;;;14.60;99.90;;;;;;4996586;28;20044;-76
2022/05/17 11:53:26;;;;;;;1.48;0.52;;;14.60;99.90;;;;;;4996657;28;20030;-77
2022/05/17 11:56:16;;;;;;;2.08;0.60;;;14.60;99.90;;;;;;4996587;28;20030;-76
2022/05/17 11:58:49;;;;;;;3.47;0.70;;;14.60;99.90;;;;;;4996587;28;20032;-76
2022/05/17 12:01:31;;;;;;;2.03;0.60;;;14.50;99.90;;;;;;4996413;28;20022;-76
2022/05/17 12:04:18;;;;;;;2.55;0.70;;;14.50;99.90;;;;;;4996419;28;20027;-76
2022/05/17 12:06:54;;;;;;;2.35;0.52;;;14.50;99.90;;;;;;4994919;28;20486;-76
2022/05/17 12:09:26;;;;;;;1.98;0.70;;;14.40;99.90;;;;;;4996006;28;20050;-77
2022/05/17 12:12:12;;;;;;;5.03;1.30;;;14.30;99.90;;;;;;4996248;28;20034;-77
2022/05/17 12:14:45;;;;;;;4.13;0.80;;;14.30;99.90;;;;;;4995167;28;20023;-77
2022/05/17 12:17:49;;;;;;;1.85;0.60;;;14.30;99.90;;;;;;4996471;28;20022;-76
2022/05/17 12:20:24;;;;;;;3.05;0.80;;;14.30;99.90;;;;;;4994614;28;20069;-76
2022/05/17 12:23:13;;;;;;;4.80;1.55;;;14.30;99.90;;;;;;4996011;28;20022;-76
2022/05/17 12:26:22;;;;;;;2.90;1.10;;;14.30;99.90;;;;;;4994656;28;20034;-76
2022/05/17 12:28:53;;;;;;;2.65;0.52;;;14.30;99.90;;;;;;4938371;29;20023;-76
2022/05/17 12:31:27;;;;;;;3.10;0.82;;;14.30;99.90;;;;;;4955137;29;20025;-76
2022/05/17 12:33:56;;;;;;;2.80;0.70;;;14.20;99.90;;;;;;4978031;28;20178;-76
2022/05/17 12:36:29;;;;;;;5.47;1.23;;;14.20;99.90;;;;;;4995798;28;20041;-76
2022/05/17 12:44:51;;;;;;;;;;;14.20;99.90;;;;;;4996300;28;20521;-76
2022/05/17 12:47:24;;;;;;;1.90;0.73;;;14.10;99.90;;;;;;4995994;28;20243;-76
2022/05/17 12:49:54;;;;;;;4.03;0.82;;;14.10;99.90;;;;;;4995518;28;20026;-76
2022/05/17 12:52:32;;;;;;;3.35;0.65;;;14.10;99.90;;;;;;4994208;28;20029;-76
2022/05/17 12:55:05;;;;;;;2.38;0.65;;;14.00;99.90;;;;;;4994579;28;20117;-77
2022/05/17 12:57:36;;;;;;;2.67;0.85;;;14.10;99.90;;;;;;4995395;28;20030;-76
2022/05/17 13:00:29;;;;;;;2.15;0.73;;;14.00;99.90;;;;;;4994097;28;20395;-76
2022/05/17 13:03:20;;;;;;;1.25;0.50;;;14.00;99.90;;;;;;4995546;28;20022;-76
2022/05/17 13:05:51;;;;;;;2.05;0.80;;;13.90;99.90;;;;;;4993989;28;20121;-77
2022/05/17 13:08:47;;;;;;;2.95;0.70;;;13.90;99.90;;;;;;4993632;28;20050;-76
2022/05/17 13:11:26;;;;;;;2.67;0.80;;;13.90;99.90;;;;;;4981781;28;20517;-76
2022/05/17 13:14:09;;;;;;;2.35;0.60;;;13.80;99.90;;;;;;4994993;28;20033;-76
2022/05/17 13:16:42;;;;;;;2.53;0.75;;;13.70;99.90;;;;;;4995263;28;20595;-76
2022/05/17 13:19:13;;;;;;;2.08;0.75;;;13.80;99.90;;;;;;4993707;28;20497;-76
2022/05/17 13:21:52;;;;;;;3.03;0.80;;;13.70;99.90;;;;;;4993639;28;20053;-76
2022/05/17 13:24:26;;;;;;;2.63;0.98;;;13.70;99.90;;;;;;4995152;28;20050;-76
2022/05/17 13:26:59;;;;;;;2.75;0.80;;;13.70;99.90;;;;;;4993494;28;20073;-76
2022/05/17 13:29:35;;;;;;;5.07;1.00;;;13.70;99.90;;;;;;4994793;28;20025;-76
2022/05/17 13:32:17;;;;;;;2.63;0.80;;;13.70;99.90;;;;;;4993527;28;20022;-77
2022/05/17 13:34:46;;;;;;;2.58;1.00;;;13.60;99.90;;;;;;4993421;28;20426;-76
2022/05/17 13:37:23;;;;;;;2.80;0.70;;;13.70;99.90;;;;;;4994622;28;20387;-76
2022/05/17 13:39:58;;;;;;;4.03;0.93;;;13.70;99.90;;;;;;4994061;28;20026;-75